createdAt,value
2022-11-06T00:00:34.200Z,4.20
2022-11-06T00:03:04.204Z,3.83
2022-11-06T00:05:50.519Z,3.80
2022-11-06T00:08:28.539Z,3.70
2022-11-06T00:10:56.794Z,4.20
2022-11-06T00:13:24.959Z,3.70
2022-11-06T00:15:53.297Z,4.20
2022-11-06T00:18:22.891Z,3.60
2022-11-06T00:20:51.201Z,4.20
2022-11-06T00:23:19.423Z,3.67
2022-11-06T00:25:47.650Z,3.73
2022-11-06T00:28:16.101Z,3.80
2022-11-06T00:30:44.338Z,3.63
2022-11-06T00:33:12.591Z,3.73
2022-11-06T00:35:42.260Z,3.77
2022-11-06T00:38:10.748Z,3.77
2022-11-06T00:40:39.084Z,3.77
2022-11-06T00:43:07.263Z,4.00
2022-11-06T00:45:35.447Z,3.93
2022-11-06T00:48:03.628Z,3.87
2022-11-06T00:50:31.826Z,3.43
2022-11-06T00:53:01.364Z,3.67
2022-11-06T00:55:29.541Z,3.67
2022-11-06T00:57:58.039Z,3.57
2022-11-06T01:00:26.273Z,3.70
2022-11-06T01:02:54.596Z,3.70
2022-11-06T01:05:22.880Z,3.63
2022-11-06T01:07:51.131Z,4.33
2022-11-06T01:10:20.732Z,3.87
2022-11-06T01:12:48.958Z,3.97
2022-11-06T01:15:17.289Z,3.73
2022-11-06T01:17:45.536Z,3.90
2022-11-06T01:20:13.882Z,3.87
2022-11-06T01:22:42.089Z,3.90
2022-11-06T01:25:10.787Z,3.83
2022-11-06T01:27:40.356Z,3.80
2022-11-06T01:30:09.266Z,3.80
2022-11-06T01:32:37.480Z,4.10
2022-11-06T01:35:05.972Z,3.70
2022-11-06T01:37:34.183Z,3.50
2022-11-06T01:40:02.379Z,3.77
2022-11-06T01:42:30.596Z,3.97
2022-11-06T01:45:17.381Z,3.50
2022-11-06T01:47:47.353Z,3.40
2022-11-06T01:50:16.653Z,3.50
2022-11-06T01:52:46.176Z,3.17
2022-11-06T01:55:16.831Z,3.40
2022-11-06T01:57:45.268Z,3.53
2022-11-06T02:00:14.292Z,4.40
2022-11-06T02:02:42.918Z,3.63
2022-11-06T02:05:12.635Z,3.47
2022-11-06T02:07:41.918Z,4.23
2022-11-06T02:10:10.644Z,3.50
2022-11-06T02:12:44.298Z,3.50
2022-11-06T02:15:16.926Z,3.73
2022-11-06T02:17:52.138Z,3.97
2022-11-06T02:20:25.561Z,3.73
2022-11-06T02:23:02.891Z,3.40
2022-11-06T02:25:37.352Z,4.40
2022-11-06T02:28:11.174Z,3.70
2022-11-06T02:30:44.919Z,3.90
2022-11-06T02:33:15.634Z,3.80
2022-11-06T02:35:47.154Z,4.00
2022-11-06T02:38:17.401Z,3.77
2022-11-06T02:40:48.846Z,3.70
2022-11-06T02:43:19.273Z,3.90
2022-11-06T02:45:49.331Z,3.50
2022-11-06T02:48:19.857Z,3.90
2022-11-06T02:50:50.201Z,3.53
2022-11-06T02:53:20.100Z,4.00
2022-11-06T02:55:50.162Z,3.90
2022-11-06T02:58:21.598Z,3.83
2022-11-06T03:00:51.851Z,3.90
2022-11-06T03:03:23.149Z,3.57
2022-11-06T03:05:55.190Z,3.57
2022-11-06T03:08:25.867Z,3.77
2022-11-06T03:10:57.127Z,4.40
2022-11-06T03:13:29.930Z,3.87
2022-11-06T03:16:05.180Z,3.77
2022-11-06T03:18:36.465Z,3.60
2022-11-06T03:21:07.091Z,3.43
2022-11-06T03:23:37.622Z,3.10
2022-11-06T03:26:12.423Z,3.53
2022-11-06T03:28:45.376Z,3.57
2022-11-06T03:31:15.988Z,3.50
2022-11-06T03:33:46.181Z,3.50
2022-11-06T03:36:15.690Z,3.30
2022-11-06T03:38:46.616Z,3.40
2022-11-06T03:41:18.080Z,3.07
2022-11-06T03:43:49.586Z,3.40
2022-11-06T03:46:20.856Z,3.37
2022-11-06T03:48:51.061Z,3.87
2022-11-06T03:51:21.507Z,3.43
2022-11-06T03:53:51.345Z,3.30
2022-11-06T03:56:20.862Z,3.30
2022-11-06T03:58:51.073Z,3.30
2022-11-06T04:01:21.357Z,3.30
2022-11-06T04:03:53.167Z,3.23
2022-11-06T04:06:24.920Z,3.63
2022-11-06T04:09:12.424Z,3.50
2022-11-06T04:11:58.830Z,3.00
2022-11-06T04:14:30.585Z,3.00
2022-11-06T04:17:01.643Z,3.00
2022-11-06T04:19:29.911Z,3.47
2022-11-06T04:22:03.855Z,3.17
2022-11-06T04:24:56.274Z,3.33
2022-11-06T04:27:27.942Z,3.13
2022-11-06T04:30:03.915Z,3.00
2022-11-06T04:32:35.401Z,2.90
2022-11-06T04:35:06.333Z,3.10
2022-11-06T04:37:38.917Z,3.10
2022-11-06T04:40:10.496Z,3.03
2022-11-06T04:42:42.467Z,2.83
2022-11-06T04:45:13.589Z,3.40
2022-11-06T04:47:41.851Z,3.13
2022-11-06T04:50:10.710Z,3.20
2022-11-06T04:52:40.075Z,3.37
2022-11-06T04:55:08.697Z,2.80
2022-11-06T04:57:36.913Z,3.03
2022-11-06T05:00:06.465Z,2.83
2022-11-06T05:02:36.205Z,2.80
2022-11-06T05:05:04.521Z,3.40
2022-11-06T05:07:32.790Z,2.80
2022-11-06T05:10:01.077Z,2.63
2022-11-06T05:12:29.743Z,3.20
2022-11-06T05:14:58.055Z,2.60
2022-11-06T05:17:26.314Z,2.80
2022-11-06T05:19:55.937Z,2.63
2022-11-06T05:22:41.656Z,3.00
2022-11-06T05:25:10.274Z,2.80
2022-11-06T05:27:38.480Z,2.83
2022-11-06T05:30:07.211Z,2.70
2022-11-06T05:32:35.456Z,2.73
2022-11-06T05:35:05.253Z,2.70
2022-11-06T05:37:33.508Z,2.87
2022-11-06T05:40:01.703Z,2.70
2022-11-06T05:42:30.220Z,2.60
2022-11-06T05:44:58.519Z,2.67
2022-11-06T05:47:26.774Z,2.97
2022-11-06T05:49:55.077Z,2.87
2022-11-06T05:52:24.793Z,3.20
2022-11-06T05:54:52.990Z,2.73
2022-11-06T06:00:13.689Z,2.77
2022-11-06T06:02:42.297Z,2.57
2022-11-06T06:05:11.337Z,2.90
2022-11-06T06:07:40.968Z,3.07
2022-11-06T06:10:09.705Z,2.87
2022-11-06T06:12:39.488Z,2.70
2022-11-06T06:15:08.326Z,2.53
2022-11-06T06:17:36.615Z,2.90
2022-11-06T06:20:05.804Z,2.93
2022-11-06T06:22:34.145Z,3.30
2022-11-06T06:25:03.917Z,3.07
2022-11-06T06:27:32.239Z,3.13
2022-11-06T06:30:00.533Z,3.50
2022-11-06T06:32:28.854Z,2.90
2022-11-06T06:34:57.153Z,3.00
2022-11-06T06:37:25.399Z,3.20
2022-11-06T06:39:53.617Z,2.90
2022-11-06T06:42:27.239Z,3.10
2022-11-06T06:44:58.514Z,2.90
2022-11-06T06:47:26.792Z,3.33
2022-11-06T06:49:54.994Z,3.20
2022-11-06T06:52:23.206Z,3.20
2022-11-06T06:54:51.472Z,2.67
2022-11-06T06:57:19.687Z,3.10
2022-11-06T06:59:49.332Z,2.60
2022-11-06T07:02:17.621Z,2.90
2022-11-06T07:04:46.095Z,3.10
2022-11-06T07:07:14.435Z,2.80
2022-11-06T07:09:44.135Z,4.00
2022-11-06T07:12:12.440Z,2.87
2022-11-06T07:14:40.781Z,3.77
2022-11-06T07:17:10.599Z,2.67
2022-11-06T07:19:39.265Z,2.90
2022-11-06T07:22:07.604Z,2.70
2022-11-06T07:24:36.398Z,2.57
2022-11-06T07:27:04.816Z,2.63
2022-11-06T07:29:33.261Z,2.90
2022-11-06T07:32:01.827Z,2.53
2022-11-06T07:34:31.613Z,3.55
2022-11-06T07:37:02.937Z,2.57
2022-11-06T07:39:33.626Z,3.03
2022-11-06T07:42:02.002Z,3.07
2022-11-06T07:44:30.289Z,2.93
2022-11-06T07:46:58.640Z,2.40
2022-11-06T07:49:27.181Z,2.80
2022-11-06T07:51:56.899Z,2.30
2022-11-06T07:54:25.420Z,2.90
2022-11-06T07:56:53.770Z,2.47
2022-11-06T07:59:22.265Z,3.10
2022-11-06T08:01:51.288Z,2.90
2022-11-06T08:04:19.590Z,2.10
2022-11-06T08:06:48.584Z,2.67
2022-11-06T08:09:18.277Z,2.20
2022-11-06T08:11:46.766Z,2.37
2022-11-06T08:14:15.243Z,2.03
2022-11-06T08:16:43.508Z,2.17
2022-11-06T08:19:11.933Z,2.17
2022-11-06T08:21:40.969Z,1.93
2022-11-06T08:24:09.675Z,2.10
2022-11-06T08:26:39.796Z,2.10
2022-11-06T08:29:09.230Z,2.40
2022-11-06T08:31:37.960Z,2.00
2022-11-06T08:34:06.609Z,2.50
2022-11-06T08:36:38.033Z,2.20
2022-11-06T08:39:06.346Z,1.97
2022-11-06T08:41:34.893Z,1.97
2022-11-06T08:44:04.729Z,2.30
2022-11-06T08:46:33.325Z,2.07
2022-11-06T08:49:01.635Z,1.90
2022-11-06T08:51:29.931Z,2.33
2022-11-06T08:53:58.788Z,1.77
2022-11-06T08:56:27.108Z,2.17
2022-11-06T08:58:55.946Z,2.20
2022-11-06T09:01:25.879Z,2.50
2022-11-06T09:03:54.207Z,2.03
2022-11-06T09:06:22.771Z,1.67
2022-11-06T09:08:51.024Z,2.00
2022-11-06T09:11:19.296Z,2.07
2022-11-06T09:13:47.707Z,1.87
2022-11-06T09:16:16.391Z,1.70
2022-11-06T09:18:46.151Z,1.97
2022-11-06T09:21:14.520Z,1.90
2022-11-06T09:23:43.992Z,2.10
2022-11-06T09:26:12.665Z,2.00
2022-11-06T09:28:40.967Z,1.70
2022-11-06T09:31:09.644Z,1.90
2022-11-06T09:33:37.945Z,1.83
2022-11-06T09:36:08.156Z,1.83
2022-11-06T09:38:36.440Z,1.90
2022-11-06T09:41:05.080Z,2.27
2022-11-06T09:46:29.165Z,1.60
2022-11-06T09:49:00.603Z,1.70
2022-11-06T09:51:33.562Z,1.83
2022-11-06T09:54:04.681Z,1.97
2022-11-06T09:56:35.831Z,2.40
2022-11-06T09:59:06.719Z,1.97
2022-11-06T10:01:38.388Z,1.97
2022-11-06T10:04:07.050Z,2.20
2022-11-06T10:06:36.662Z,2.10
2022-11-06T10:09:07.834Z,2.07
2022-11-06T10:11:46.296Z,1.90
2022-11-06T10:14:20.937Z,2.00
2022-11-06T10:16:53.691Z,2.10
2022-11-06T10:19:26.199Z,2.20
2022-11-06T10:21:59.012Z,2.00
2022-11-06T10:24:33.087Z,2.47
2022-11-06T10:27:01.890Z,2.37
2022-11-06T10:29:35.591Z,2.20
2022-11-06T10:32:10.006Z,2.20
2022-11-06T10:34:41.283Z,2.20
2022-11-06T10:37:13.827Z,2.23
2022-11-06T10:39:42.707Z,1.97
2022-11-06T10:42:14.318Z,2.33
2022-11-06T10:44:44.475Z,2.23
2022-11-06T10:47:16.581Z,2.07
2022-11-06T10:49:47.861Z,1.90
2022-11-06T10:52:28.126Z,2.30
2022-11-06T10:55:04.477Z,2.60
2022-11-06T10:57:38.805Z,2.40
2022-11-06T11:00:07.472Z,2.07
2022-11-06T11:02:37.016Z,1.80
2022-11-06T11:05:12.251Z,1.80
2022-11-06T11:07:42.522Z,1.90
2022-11-06T11:10:27.727Z,2.00
2022-11-06T11:12:57.354Z,2.00
2022-11-06T11:15:26.604Z,2.07
2022-11-06T11:18:31.167Z,1.90
2022-11-06T11:21:10.309Z,1.90
2022-11-06T11:23:40.282Z,2.10
2022-11-06T11:26:19.076Z,2.10
2022-11-06T11:28:51.453Z,1.87
2022-11-06T11:31:20.004Z,2.00
2022-11-06T11:33:52.526Z,2.20
2022-11-06T11:36:20.888Z,1.70
2022-11-06T11:38:50.848Z,1.90
2022-11-06T11:41:24.411Z,1.87
2022-11-06T11:43:59.068Z,1.97
2022-11-06T11:46:27.528Z,2.17
2022-11-06T11:48:57.475Z,1.50
2022-11-06T11:51:30.270Z,1.70
2022-11-06T11:54:01.208Z,1.70
2022-11-06T11:56:57.696Z,2.00
2022-11-06T11:59:19.709Z,1.60
2022-11-06T12:01:48.440Z,1.67
2022-11-06T12:04:22.935Z,1.83
2022-11-06T12:06:52.860Z,2.03
2022-11-06T12:09:22.712Z,1.70
2022-11-06T12:11:51.324Z,2.20
2022-11-06T12:14:35.180Z,1.80
2022-11-06T12:17:23.563Z,2.00
2022-11-06T12:20:01.997Z,1.63
2022-11-06T12:22:33.749Z,1.90
2022-11-06T12:25:04.732Z,1.67
2022-11-06T12:27:35.476Z,1.70
2022-11-06T12:30:07.820Z,1.70
2022-11-06T12:32:43.356Z,1.73
2022-11-06T12:35:16.943Z,2.30
2022-11-06T12:37:48.762Z,2.20
2022-11-06T12:40:24.976Z,2.03
2022-11-06T12:43:04.226Z,1.93
2022-11-06T12:45:38.373Z,1.97
2022-11-06T12:48:12.822Z,2.10
2022-11-06T12:50:43.398Z,2.23
2022-11-06T12:53:17.402Z,3.10
2022-11-06T12:55:50.620Z,3.50
2022-11-06T12:58:25.359Z,1.90
2022-11-06T13:00:59.983Z,2.00
2022-11-06T13:03:48.237Z,1.80
2022-11-06T13:06:20.428Z,1.90
2022-11-06T13:08:52.834Z,2.03
2022-11-06T13:11:31.458Z,2.03
2022-11-06T13:14:08.328Z,2.20
2022-11-06T13:16:43.518Z,2.20
2022-11-06T13:19:18.318Z,2.03
2022-11-06T13:22:17.519Z,1.87
2022-11-06T13:24:50.158Z,1.60
2022-11-06T13:27:24.943Z,1.90
2022-11-06T13:29:54.114Z,1.90
2022-11-06T13:32:28.353Z,1.57
2022-11-06T13:34:57.437Z,1.93
2022-11-06T13:37:33.144Z,1.90
2022-11-06T13:40:06.800Z,2.10
2022-11-06T13:42:40.140Z,1.90
2022-11-06T13:45:09.662Z,2.00
2022-11-06T13:47:43.761Z,1.90
2022-11-06T13:50:15.054Z,1.57
2022-11-06T13:52:46.992Z,2.20
2022-11-06T13:55:18.813Z,1.70
2022-11-06T13:58:11.428Z,2.10
2022-11-06T14:00:48.394Z,2.00
2022-11-06T14:03:26.225Z,1.63
2022-11-06T14:05:56.326Z,2.07
2022-11-06T14:08:33.269Z,2.00
2022-11-06T14:11:03.763Z,2.20
2022-11-06T14:13:36.747Z,1.90
2022-11-06T14:16:27.124Z,1.80
2022-11-06T14:18:57.151Z,2.43
2022-11-06T14:21:31.475Z,2.10
2022-11-06T14:24:06.652Z,2.10
2022-11-06T14:26:42.016Z,2.77
2022-11-06T14:32:01.932Z,2.10
2022-11-06T14:34:30.751Z,1.70
2022-11-06T14:36:59.387Z,2.00
2022-11-06T14:40:05.530Z,2.00
2022-11-06T14:42:37.386Z,2.10
2022-11-06T14:45:11.927Z,2.50
2022-11-06T14:47:43.265Z,2.27
2022-11-06T14:50:27.998Z,2.40
2022-11-06T14:52:58.635Z,2.73
2022-11-06T14:55:29.363Z,2.00
2022-11-06T14:58:03.335Z,2.10
2022-11-06T15:00:39.905Z,2.17
2022-11-06T15:03:21.348Z,2.63
2022-11-06T15:05:52.335Z,2.60
2022-11-06T15:08:41.182Z,2.97
2022-11-06T15:11:10.114Z,2.53
2022-11-06T15:13:38.998Z,3.53
2022-11-06T15:16:13.269Z,2.00
2022-11-06T15:18:49.333Z,2.53
2022-11-06T15:21:20.961Z,2.60
2022-11-06T15:23:54.666Z,1.93
2022-11-06T15:26:26.023Z,1.50
2022-11-06T15:29:04.758Z,1.93
2022-11-06T15:31:33.640Z,2.70
2022-11-06T15:34:05.524Z,2.10
2022-11-06T15:36:39.490Z,1.47
2022-11-06T15:39:24.519Z,1.90
2022-11-06T15:41:56.742Z,2.97
2022-11-06T15:44:26.069Z,1.83
2022-11-06T15:46:55.432Z,2.40
2022-11-06T15:49:25.454Z,2.20
2022-11-06T15:51:54.885Z,2.03
2022-11-06T15:54:32.741Z,2.20
2022-11-06T15:57:08.903Z,2.07
2022-11-06T15:59:37.926Z,2.13
2022-11-06T16:02:07.729Z,2.40
2022-11-06T16:04:38.860Z,2.50
2022-11-06T16:07:08.431Z,2.20
2022-11-06T16:09:39.757Z,2.67
2022-11-06T16:12:08.781Z,2.93
2022-11-06T16:15:01.411Z,3.00
2022-11-06T16:17:35.927Z,3.00
2022-11-06T16:20:07.309Z,2.83
2022-11-06T16:22:35.787Z,2.80
2022-11-06T16:25:10.160Z,2.17
2022-11-06T16:27:42.258Z,2.63
2022-11-06T16:30:25.109Z,3.20
2022-11-06T16:32:54.607Z,3.13
2022-11-06T16:35:35.723Z,3.17
2022-11-06T16:41:11.933Z,2.50
2022-11-06T16:43:40.447Z,2.50
2022-11-06T16:46:10.148Z,2.30
2022-11-06T16:48:39.426Z,2.17
2022-11-06T16:51:10.848Z,2.50
2022-11-06T16:53:51.537Z,2.40
2022-11-06T16:56:23.783Z,2.30
2022-11-06T16:58:53.245Z,2.10
2022-11-06T17:01:21.709Z,2.17
2022-11-06T17:03:51.791Z,2.07
2022-11-06T17:06:24.101Z,2.00
2022-11-06T17:09:00.695Z,2.23
2022-11-06T17:11:32.124Z,2.30
2022-11-06T17:14:00.605Z,2.60
2022-11-06T17:16:30.790Z,2.50
2022-11-06T17:18:59.186Z,2.07
2022-11-06T17:21:28.895Z,1.77
2022-11-06T17:24:07.628Z,2.07
2022-11-06T17:26:47.999Z,2.20
2022-11-06T17:29:21.050Z,2.87
2022-11-06T17:31:52.151Z,2.23
2022-11-06T17:34:20.696Z,2.83
2022-11-06T17:36:51.272Z,3.30
2022-11-06T17:39:28.063Z,3.00
2022-11-06T17:41:59.144Z,3.03
2022-11-06T17:44:30.622Z,2.57
2022-11-06T17:46:59.148Z,1.90
2022-11-06T17:49:27.544Z,1.80
2022-11-06T17:52:01.059Z,1.73
2022-11-06T17:54:32.185Z,1.60
2022-11-06T17:57:01.619Z,2.03
2022-11-06T17:59:30.036Z,2.70
2022-11-06T18:01:58.956Z,2.53
2022-11-06T18:04:30.752Z,2.40
2022-11-06T18:07:01.138Z,2.33
2022-11-06T18:09:30.711Z,2.33
2022-11-06T18:11:59.492Z,2.40
2022-11-06T18:14:28.432Z,2.40
2022-11-06T18:16:57.307Z,2.17
2022-11-06T18:19:26.814Z,1.70
2022-11-06T18:21:56.678Z,1.90
2022-11-06T18:24:27.199Z,1.80
2022-11-06T18:26:56.567Z,1.80
2022-11-06T18:29:25.104Z,1.80
2022-11-06T18:31:53.394Z,1.60
2022-11-06T18:34:22.588Z,2.10
2022-11-06T18:36:51.540Z,1.73
2022-11-06T18:39:20.706Z,2.00
2022-11-06T18:41:53.175Z,2.13
2022-11-06T18:44:21.955Z,1.97
2022-11-06T18:46:52.330Z,1.80
2022-11-06T18:49:22.044Z,2.03
2022-11-06T18:51:51.013Z,2.10
2022-11-06T18:54:35.662Z,3.00
2022-11-06T18:57:05.846Z,2.90
2022-11-06T18:59:34.463Z,2.50
2022-11-06T19:02:03.799Z,2.80
2022-11-06T19:04:32.846Z,2.40
2022-11-06T19:07:01.761Z,2.87
2022-11-06T19:09:30.762Z,2.43
2022-11-06T19:11:59.719Z,2.47
2022-11-06T19:14:29.666Z,2.27
2022-11-06T19:16:58.369Z,2.40
2022-11-06T19:19:26.778Z,2.07
2022-11-06T19:21:55.496Z,2.97
2022-11-06T19:24:23.982Z,2.30
2022-11-06T19:26:52.502Z,2.23
2022-11-06T19:29:20.836Z,1.93
2022-11-06T19:31:52.010Z,2.30
2022-11-06T19:34:25.335Z,2.20
2022-11-06T19:36:54.341Z,2.40
2022-11-06T19:39:22.878Z,2.30
2022-11-06T19:41:51.297Z,2.30
2022-11-06T19:44:19.909Z,2.33
2022-11-06T19:46:49.928Z,2.80
2022-11-06T19:49:18.422Z,2.83
2022-11-06T19:51:47.556Z,2.20
2022-11-06T19:54:17.421Z,2.70
2022-11-06T19:57:28.193Z,2.60
2022-11-06T19:59:34.220Z,2.40
2022-11-06T20:02:06.057Z,2.40
2022-11-06T20:04:34.477Z,2.20
2022-11-06T20:07:02.841Z,2.13
2022-11-06T20:09:32.035Z,2.50
2022-11-06T20:12:00.602Z,2.20
2022-11-06T20:14:29.344Z,2.57
2022-11-06T20:16:57.866Z,2.17
2022-11-06T20:19:27.818Z,2.80
2022-11-06T20:21:56.112Z,2.10
2022-11-06T20:24:24.496Z,1.90
2022-11-06T20:26:52.922Z,2.10
2022-11-06T20:29:21.242Z,2.07
2022-11-06T20:31:49.921Z,2.40
2022-11-06T20:34:18.282Z,2.27
2022-11-06T20:36:48.017Z,2.50
2022-11-06T20:39:17.478Z,2.10
2022-11-06T20:41:46.498Z,2.20
2022-11-06T20:44:14.809Z,2.90
2022-11-06T20:46:45.183Z,2.30
2022-11-06T20:49:15.818Z,2.70
2022-11-06T20:52:12.060Z,2.70
2022-11-06T20:54:34.209Z,2.93
2022-11-06T20:57:02.490Z,2.70
2022-11-06T20:59:31.023Z,2.50
2022-11-06T21:01:59.526Z,2.40
2022-11-06T21:04:27.946Z,2.60
2022-11-06T21:06:56.217Z,2.43
2022-11-06T21:09:24.879Z,2.67
2022-11-06T21:11:54.644Z,2.53
2022-11-06T21:14:23.509Z,3.10
2022-11-06T21:16:52.596Z,2.70
2022-11-06T21:19:20.938Z,3.00
2022-11-06T21:21:49.184Z,2.60
2022-11-06T21:24:17.463Z,2.87
2022-11-06T21:26:45.768Z,3.40
2022-11-06T21:29:15.421Z,3.10
2022-11-06T21:31:49.094Z,3.20
2022-11-06T21:34:17.834Z,3.00
2022-11-06T21:36:46.370Z,2.87
2022-11-06T21:39:15.703Z,3.20
2022-11-06T21:41:44.318Z,3.03
2022-11-06T21:44:15.919Z,2.87
2022-11-06T21:46:45.854Z,3.10
2022-11-06T21:49:14.657Z,3.43
2022-11-06T21:51:43.108Z,3.13
2022-11-06T21:54:29.545Z,3.30
2022-11-06T21:56:57.823Z,3.10
2022-11-06T21:59:28.324Z,3.33
2022-11-06T22:01:56.797Z,3.47
2022-11-06T22:04:25.274Z,3.30
2022-11-06T22:06:54.796Z,3.13
2022-11-06T22:09:25.656Z,3.50
2022-11-06T22:11:54.574Z,3.40
2022-11-06T22:14:23.048Z,3.80
2022-11-06T22:16:52.637Z,3.00
2022-11-06T22:19:20.838Z,3.73
2022-11-06T22:21:49.131Z,3.33
2022-11-06T22:24:17.402Z,3.00
2022-11-06T22:26:45.964Z,3.40
2022-11-06T22:29:15.021Z,3.00
2022-11-06T22:31:43.277Z,3.10
2022-11-06T22:34:12.984Z,2.90
2022-11-06T22:36:41.220Z,2.80
2022-11-06T22:39:10.205Z,3.13
2022-11-06T22:41:38.626Z,3.27
2022-11-06T22:44:07.165Z,3.03
2022-11-06T22:46:35.886Z,3.40
2022-11-06T22:49:05.030Z,3.00
2022-11-06T22:51:35.252Z,2.67
2022-11-06T22:54:03.851Z,3.10
2022-11-06T22:56:32.727Z,3.10
2022-11-06T22:59:02.002Z,3.00
2022-11-06T23:01:30.886Z,3.10
2022-11-06T23:04:01.425Z,2.70
2022-11-06T23:06:30.535Z,2.83
2022-11-06T23:09:00.424Z,2.63
2022-11-06T23:11:29.456Z,2.90
2022-11-06T23:13:57.844Z,2.73
2022-11-06T23:16:40.855Z,2.83
2022-11-06T23:19:09.457Z,3.00
2022-11-06T23:21:37.927Z,3.07
2022-11-06T23:24:08.322Z,2.70
2022-11-06T23:26:36.864Z,2.63
2022-11-06T23:29:05.147Z,2.87
2022-11-06T23:31:33.371Z,2.83
2022-11-06T23:34:01.585Z,2.80
2022-11-06T23:36:29.796Z,2.77
2022-11-06T23:38:58.067Z,2.53
2022-11-06T23:41:46.654Z,2.50
2022-11-06T23:44:32.782Z,2.73
2022-11-06T23:47:01.194Z,2.60
2022-11-06T23:49:29.585Z,2.50
2022-11-06T23:51:57.804Z,2.80
2022-11-06T23:54:26.385Z,2.40
2022-11-06T23:56:56.200Z,2.53
2022-11-06T23:59:24.536Z,2.50
